Santa Marta, Colombia

5:19 AM COT en Abril 28, 2015 (GMT -0500)
Playa Salguero | | Change Station
CLOSE
Current Station
Estación meteorológica personal
Location: Rodadero Sur Santa Marta, Magdalena
Altura: 0 ft
Estaciones meteorológicas cercanas

Alt 0 ft 11.19 °N, 74.23 °W | Updated 8 seconds ago

Fog
Niebla
83.7 ° F
Sensación térmica 95 ° F
N
0.0
Viento Variable Viento desde SE
Gusts 5.0 mph

Hoy
Alta -- | Baja -- ° F
--% Posibilidad de precipitaciones
Ayer
Alta -- | Baja -- ° F
Precip. -- pul
5:39 AM 6:09 PM
Gibosa creciente, 72% visible
Presión 29.72 pul
Visibilidad 4.3 Millas
Nubes Baja 1000 ft
Índice de calor 95 ° F
Punto de rocío 79 ° F
Humedad 86%
Precipitaciones 0.00 pul
Espesor de la nieve No disponible.
UV 0 de una escala de 12
Polen No disponible.
Calidad del aire No disponible.
Flu Activity No disponible.
METAR SKBQ 281000Z 26004KT 7000 VCFG FEW010 26/25 A2972

More Conditions Fewer Conditions

Presión 29.72 pul
Visibilidad 4.3 Millas
Nubes Baja 1000 ft
Índice de calor 95 ° F
Punto de rocío 79 ° F
Humedad 86%
Precipitaciones 0.00 pul
Espesor de la nieve No disponible.
UV 0 de una escala de 12
Polen No disponible.
Calidad del aire No disponible.
Flu Activity No disponible.
METAR SKBQ 281000Z 26004KT 7000 VCFG FEW010 26/25 A2972

More Conditions Fewer Conditions

10-Day Weather Forecast

Almanac

Astronomía

Apr. 28, 2015 Salida Puesta
Hora real
Crepúsculo civil
Crepúsculo náutico
Crepúsculo astronómico
Luna
Horas de luz
Horas de luz
Tomorrow will be .
, % of the Moon is Illuminated

Extremos de hoy

Máximos del país Bajas del país

Community

WunderPhotos

Upload Photos

1,817,600 ¡fotos cargadas!

WunderBlogs® & News

Nearby

Calidad del aire

  Calidad del aire Índice AQ Contaminante
Not available.

Grosos de nieve

Estación Profundido Altura

Actividad de terremotos

Ciudad Distance Mag. Tiempo y dato
Magnitud mínima muestra es 2,5.

Temperaturas de aguas costeras

Lugar Temperatura

Stations

Estaciones meteorológicas cercanas

Ubicación de la estación Temp. Vientos helados Punto de rocío Humedad Viento Precip. Alt Actualizado Tipo